Time;durP1;ratioP1;P1;durP2;ratioP2;P2;SDS_P1;SDS_P2;PMS_P1;PMS_P2;Temp;Humidity;BMP_temperature;BMP_pressure;BME280_temperature;BME280_humidity;BME280_pressure;Samples;Min_cycle;Max_cycle;Signal;HPM_P1;HPM_P2
2023/09/07 00:01:14;;;;;;;5.65;4.72;;;20.10;94.30;;;20.14;64.94;101561.28;5051848;28;20424;-75
2023/09/07 00:03:48;;;;;;;5.93;4.93;;;20.20;94.50;;;19.98;65.03;101550.75;5051901;28;20464;-75
2023/09/07 00:06:21;;;;;;;6.35;5.13;;;20.00;94.10;;;19.93;65.64;101552.41;5052033;28;20432;-75
2023/09/07 00:08:55;;;;;;;6.30;4.78;;;19.90;94.70;;;20.20;64.47;101554.22;5052042;28;20519;-75
2023/09/07 00:11:29;;;;;;;6.83;4.87;;;20.20;94.30;;;19.88;65.33;101555.72;5051746;28;20510;-75
2023/09/07 00:14:02;;;;;;;7.97;5.32;;;20.00;94.50;;;19.85;65.94;101556.13;5051844;28;20470;-75
2023/09/07 00:16:38;;;;;;;6.65;5.10;;;20.00;99.70;;;19.74;66.32;101560.25;5051698;28;20432;-75
2023/09/07 00:19:11;;;;;;;7.00;4.90;;;19.70;95.30;;;19.94;65.80;101548.63;5051427;28;20806;-75
2023/09/07 00:21:45;;;;;;;5.47;4.80;;;20.00;99.90;;;20.02;65.40;101562.91;5051698;28;20432;-75
2023/09/07 00:24:18;;;;;;;5.38;4.88;;;20.20;94.60;;;20.06;64.85;101564.19;5052001;28;20515;-75
2023/09/07 00:26:52;;;;;;;6.75;4.72;;;20.20;94.20;;;19.97;65.02;101550.94;5051717;28;20505;-75
2023/09/07 00:29:26;;;;;;;6.43;4.90;;;20.10;99.80;;;19.90;65.24;101553.63;5051582;28;20510;-75
2023/09/07 00:31:59;;;;;;;6.57;5.00;;;20.00;94.50;;;19.82;64.88;101555.69;5051643;28;20472;-75
2023/09/07 00:34:33;;;;;;;5.27;4.57;;;20.00;94.30;;;19.80;65.54;101557.75;5052793;28;20191;-75
2023/09/07 00:37:07;;;;;;;6.28;4.53;;;19.80;95.40;;;19.77;65.41;101559.00;5051725;28;20419;-75
2023/09/07 00:39:40;;;;;;;6.80;4.60;;;19.80;94.90;;;19.58;66.15;101549.72;5051732;28;20929;-75
2023/09/07 00:42:13;;;;;;;6.35;4.90;;;19.60;99.90;;;19.49;66.45;101555.47;5051765;28;20478;-75
2023/09/07 00:44:47;;;;;;;5.50;4.90;;;19.50;95.30;;;19.43;66.77;101548.97;5051368;28;20514;-75
2023/09/07 00:47:22;;;;;;;7.07;4.88;;;19.40;95.60;;;19.32;66.67;101549.47;5052215;28;20913;-75
2023/09/07 00:49:58;;;;;;;6.22;5.00;;;19.40;95.60;;;19.47;66.48;101552.13;5054942;28;20424;-75
2023/09/07 00:52:32;;;;;;;5.97;5.00;;;19.60;95.50;;;19.49;65.89;101556.31;5055049;28;20516;-75
2023/09/07 00:55:08;;;;;;;6.97;5.22;;;19.70;95.10;;;19.39;66.81;101555.81;5055006;28;20423;-75
2023/09/07 00:57:43;;;;;;;7.05;5.50;;;19.40;99.90;;;19.29;66.88;101549.88;5054938;28;20428;-75
2023/09/07 01:00:18;;;;;;;7.30;5.60;;;19.40;96.60;;;19.27;67.12;101545.69;5054732;28;20444;-74
2023/09/07 01:02:51;;;;;;;6.10;5.00;;;19.40;95.70;;;19.27;66.76;101551.13;5055117;28;20918;-74
2023/09/07 01:05:33;;;;;;;7.10;5.60;;;19.40;95.70;;;19.10;68.47;101545.16;5054805;28;20495;-74
2023/09/07 01:08:24;;;;;;;6.63;5.70;;;19.50;99.90;;;18.99;68.78;101529.41;5054425;28;20507;-74
2023/09/07 01:10:57;;;;;;;5.60;5.10;;;19.00;97.20;;;18.99;68.62;101540.25;5055869;28;20261;-74
2023/09/07 01:13:31;;;;;;;9.13;5.88;;;19.10;96.80;;;18.83;69.83;101545.97;5054688;28;20462;-74
2023/09/07 01:16:04;;;;;;;7.65;5.70;;;18.90;98.00;;;18.81;69.59;101545.28;5055048;28;20459;-74
2023/09/07 01:18:38;;;;;;;7.47;5.82;;;18.80;97.70;;;18.77;69.63;101549.47;5054880;28;20455;-74
2023/09/07 01:21:15;;;;;;;7.65;5.70;;;18.80;97.80;;;18.74;70.05;101551.50;5054384;28;20492;-74
2023/09/07 01:23:49;;;;;;;7.03;5.63;;;18.90;98.30;;;18.73;69.76;101547.09;5054740;28;20981;-74
2023/09/07 01:26:23;;;;;;;6.53;5.65;;;18.80;98.00;;;18.79;69.92;101544.66;5054678;28;20507;-74
2023/09/07 01:28:57;;;;;;;7.80;5.32;;;18.80;98.10;;;18.90;68.97;101527.88;5055397;28;20428;-74
2023/09/07 01:31:30;;;;;;;6.67;5.47;;;19.10;97.50;;;18.89;69.12;101531.59;5054262;28;20854;-74
2023/09/07 01:34:04;;;;;;;5.97;5.38;;;19.00;97.60;;;19.05;68.31;101534.03;5054328;28;20809;-74
2023/09/07 01:36:37;;;;;;;7.37;5.77;;;19.20;97.20;;;19.01;68.44;101530.88;5055446;28;20280;-74
2023/09/07 01:39:11;;;;;;;6.90;5.83;;;19.10;97.30;;;18.95;68.28;101526.22;5055436;28;20194;-74
2023/09/07 01:41:45;;;;;;;6.82;5.82;;;19.10;97.10;;;18.83;68.70;101530.53;5053744;28;20534;-74
2023/09/07 01:44:18;;;;;;;5.90;5.40;;;18.90;97.40;;;18.82;68.84;101538.84;5054154;28;20459;-74
2023/09/07 01:46:52;;;;;;;7.70;6.18;;;18.90;97.70;;;18.78;69.15;101537.53;5054215;28;20936;-74
2023/09/07 01:49:25;;;;;;;8.80;5.93;;;18.80;97.90;;;18.76;69.22;101532.34;5053929;28;20469;-74
2023/09/07 01:51:58;;;;;;;6.20;5.63;;;18.90;98.00;;;18.80;68.98;101535.50;5053641;28;20793;-74
2023/09/07 01:54:32;;;;;;;6.88;6.03;;;18.90;98.10;;;18.59;70.18;101542.59;5053988;28;20424;-74
2023/09/07 01:57:05;;;;;;;7.40;5.90;;;18.70;98.10;;;18.61;69.30;101535.09;5054195;28;20432;-74
2023/09/07 01:59:39;;;;;;;7.28;5.97;;;18.80;98.00;;;18.54;69.64;101534.19;5053106;28;20835;-74
2023/09/07 02:02:13;;;;;;;7.22;6.10;;;18.70;98.20;;;18.67;69.22;101539.75;5054022;28;20505;-74
2023/09/07 02:04:46;;;;;;;7.45;6.03;;;18.80;98.10;;;18.72;69.53;101544.59;5053956;28;20434;-74
2023/09/07 02:07:19;;;;;;;8.10;6.03;;;19.00;99.90;;;18.60;69.52;101528.00;5053151;28;20434;-74
2023/09/07 02:09:53;;;;;;;6.47;5.65;;;18.80;98.20;;;18.49;69.78;101535.78;5053349;28;20428;-74
2023/09/07 02:12:26;;;;;;;8.18;6.15;;;18.70;98.00;;;18.46;69.95;101542.41;5053411;28;20869;-74
2023/09/07 02:15:05;;;;;;;6.65;5.97;;;18.60;98.60;;;18.47;69.74;101533.25;5054434;28;20523;-74
2023/09/07 02:17:38;;;;;;;6.45;5.50;;;18.60;98.40;;;18.40;70.39;101534.22;5053502;28;20522;-74
2023/09/07 02:20:14;;;;;;;7.18;6.30;;;18.50;98.70;;;18.41;70.02;101528.59;5053248;28;20493;-74
2023/09/07 02:22:48;;;;;;;7.90;5.97;;;18.50;99.60;;;18.26;70.33;101525.09;5053335;28;20427;-74
2023/09/07 02:25:21;;;;;;;6.50;5.90;;;18.40;98.80;;;18.24;70.47;101538.00;5053441;28;20452;-74
2023/09/07 02:27:54;;;;;;;6.75;6.15;;;18.30;99.10;;;18.29;70.62;101534.72;5053661;28;20424;-74
2023/09/07 02:30:27;;;;;;;7.40;6.05;;;18.40;99.00;;;18.23;70.36;101531.75;5053348;28;20797;-74
2023/09/07 02:33:01;;;;;;;8.02;6.03;;;18.50;98.90;;;17.98;71.51;101532.28;5053249;28;20446;-74
2023/09/07 02:35:37;;;;;;;7.53;6.22;;;18.10;99.90;;;17.92;71.97;101538.44;5053088;28;20436;-74
2023/09/07 02:38:11;;;;;;;7.18;6.50;;;18.00;99.90;;;17.80;73.16;101537.25;5053660;28;20898;-74
2023/09/07 02:40:47;;;;;;;8.80;6.75;;;17.90;99.90;;;17.85;72.00;101538.34;5053107;28;20482;-74
2023/09/07 02:43:22;;;;;;;6.73;6.03;;;18.10;99.90;;;17.97;72.25;101541.44;5053058;28;20473;-74
2023/09/07 02:45:55;;;;;;;7.07;6.13;;;18.20;99.90;;;17.85;71.93;101548.34;5052953;28;20903;-74
2023/09/07 02:48:29;;;;;;;7.50;6.60;;;18.00;99.90;;;17.84;71.68;101546.69;5052907;28;20419;-74
2023/09/07 02:51:03;;;;;;;7.13;6.45;;;18.00;99.90;;;17.87;70.66;101544.44;5052731;28;20503;-74
2023/09/07 02:53:36;;;;;;;7.00;6.30;;;18.30;99.50;;;17.89;71.83;101546.94;5052841;28;20902;-74
2023/09/07 02:56:10;;;;;;;7.03;6.32;;;18.00;99.90;;;17.84;71.23;101547.53;5053259;28;20428;-74
2023/09/07 02:58:45;;;;;;;7.65;6.90;;;18.00;99.70;;;17.75;71.46;101548.63;5053240;28;20436;-74
2023/09/07 03:01:21;;;;;;;7.35;6.60;;;17.90;99.80;;;17.83;71.74;101542.28;5052847;28;20490;-74
2023/09/07 03:03:55;;;;;;;7.47;6.63;;;18.10;99.90;;;17.74;71.26;101542.38;5052570;28;20427;-74
2023/09/07 03:06:28;;;;;;;8.20;7.30;;;17.90;99.90;;;17.41;73.58;101546.44;5052395;28;20428;-74
2023/09/07 03:09:01;;;;;;;7.88;7.15;;;17.60;99.90;;;17.49;72.62;101543.66;5052378;28;20786;-74
2023/09/07 03:11:35;;;;;;;8.15;6.90;;;17.60;99.90;;;17.43;73.44;101547.09;5051891;28;20973;-74
2023/09/07 03:14:08;;;;;;;8.00;6.68;;;17.60;99.90;;;17.50;73.09;101550.72;5052847;28;20518;-74
2023/09/07 03:16:41;;;;;;;9.55;6.97;;;17.60;99.90;;;17.43;72.98;101549.78;5053242;28;20471;-74
2023/09/07 03:19:15;;;;;;;8.27;7.28;;;17.60;99.90;;;17.45;72.53;101541.50;5052624;28;20424;-74
2023/09/07 03:21:48;;;;;;;7.50;6.73;;;17.70;99.90;;;17.55;72.80;101548.31;5051912;28;20941;-74
2023/09/07 03:24:22;;;;;;;7.45;6.75;;;17.70;99.90;;;17.56;71.91;101555.47;5052287;28;20901;-74
2023/09/07 03:26:55;;;;;;;7.00;6.35;;;17.80;99.90;;;17.56;72.35;101547.34;5051936;28;20514;-74
2023/09/07 03:29:30;;;;;;;7.75;6.95;;;17.80;99.90;;;17.46;72.80;101549.44;5052319;28;20501;-74
2023/09/07 03:32:04;;;;;;;7.53;6.72;;;17.60;99.90;;;17.39;72.79;101547.66;5052424;28;20431;-74
2023/09/07 03:34:39;;;;;;;7.83;6.30;;;17.60;99.90;;;17.48;72.66;101550.09;5053070;28;20662;-74
2023/09/07 03:37:12;;;;;;;7.30;6.50;;;17.70;99.90;;;17.53;71.91;101541.41;5053378;28;20273;-74
2023/09/07 03:39:46;;;;;;;7.65;6.70;;;17.80;99.90;;;17.54;72.77;101546.63;5052687;28;20455;-74
2023/09/07 03:42:19;;;;;;;8.35;7.45;;;17.80;99.90;;;17.38;73.03;101541.41;5052017;28;20534;-74
2023/09/07 03:44:52;;;;;;;7.78;7.07;;;17.60;99.90;;;17.34;73.41;101545.50;5052087;28;20522;-74
2023/09/07 03:47:28;;;;;;;8.40;7.40;;;17.50;99.90;;;17.26;73.46;101540.16;5052579;28;20506;-74
2023/09/07 03:50:03;;;;;;;8.43;6.93;;;17.40;99.90;;;17.25;73.52;101541.19;5052333;28;20432;-74
2023/09/07 03:52:36;;;;;;;9.15;7.63;;;17.40;99.90;;;17.26;74.13;101542.88;5052085;28;20511;-75
2023/09/07 03:55:12;;;;;;;9.88;7.43;;;17.40;99.90;;;17.26;73.87;101550.97;5052083;28;20458;-75
2023/09/07 03:57:46;;;;;;;8.32;7.45;;;17.50;99.90;;;17.19;73.89;101545.47;5051594;28;20848;-75
2023/09/07 04:00:21;;;;;;;8.43;7.45;;;17.40;99.90;;;17.21;73.90;101550.72;5052667;28;20459;-75
2023/09/07 04:02:56;;;;;;;8.32;7.53;;;17.40;99.90;;;17.21;73.81;101559.69;5051803;28;20447;-75
2023/09/07 04:05:30;;;;;;;8.60;7.60;;;17.40;99.90;;;17.17;74.20;101552.09;5052077;28;20454;-75
2023/09/07 04:08:04;;;;;;;8.45;7.65;;;17.50;99.90;;;17.18;73.91;101551.09;5051579;28;20447;-75
2023/09/07 04:10:39;;;;;;;8.40;7.60;;;17.40;99.90;;;17.19;74.13;101548.19;5052972;28;20316;-75
2023/09/07 04:13:12;;;;;;;8.68;7.78;;;17.40;99.90;;;17.15;74.28;101546.03;5051785;28;20416;-75
2023/09/07 04:15:48;;;;;;;9.43;8.03;;;17.40;99.90;;;17.10;74.20;101553.84;5051400;28;20934;-75
2023/09/07 04:18:22;;;;;;;9.20;7.95;;;17.30;99.90;;;16.95;74.73;101555.69;5052562;28;20423;-75
2023/09/07 04:21:04;;;;;;;8.95;8.05;;;17.20;99.90;;;17.00;75.22;101547.84;5051268;28;20926;-75
2023/09/07 04:23:38;;;;;;;8.98;7.90;;;17.20;99.90;;;16.99;74.66;101557.00;5054685;28;20435;-75
2023/09/07 04:26:15;;;;;;;9.10;8.10;;;17.20;99.90;;;16.92;74.66;101550.66;5055688;28;20427;-75
2023/09/07 04:28:48;;;;;;;8.37;7.57;;;17.20;99.90;;;17.05;73.83;101557.13;5056635;28;20431;-74
2023/09/07 04:31:21;;;;;;;22.98;9.45;;;17.30;99.90;;;17.06;74.13;101561.50;5055190;28;20512;-75
2023/09/07 04:33:55;;;;;;;9.35;8.02;;;17.40;99.90;;;17.05;74.21;101557.13;5056050;28;20435;-75
2023/09/07 04:36:28;;;;;;;9.63;8.03;;;17.30;99.90;;;17.11;73.99;101556.38;5056406;28;20571;-75
2023/09/07 04:39:03;;;;;;;8.32;7.60;;;17.40;99.90;;;17.04;74.22;101554.59;5055826;28;20467;-75
2023/09/07 04:41:36;;;;;;;9.18;7.68;;;17.30;99.90;;;17.07;74.62;101559.63;5055342;28;20517;-75
2023/09/07 04:44:10;;;;;;;8.80;7.82;;;17.30;99.90;;;16.93;74.84;101563.13;5055255;28;20424;-75
2023/09/07 04:46:44;;;;;;;9.30;8.40;;;17.10;99.90;;;16.99;74.06;101562.41;5055625;28;20443;-75
2023/09/07 04:49:17;;;;;;;9.90;8.30;;;17.20;99.90;;;16.93;74.97;101566.69;5055302;28;20494;-75
2023/09/07 04:51:50;;;;;;;9.55;8.27;;;17.20;99.90;;;16.82;74.75;101566.25;5054789;28;20886;-75
2023/09/07 04:54:24;;;;;;;8.80;8.00;;;17.10;99.90;;;16.79;75.18;101564.75;5055308;28;20478;-75
2023/09/07 04:56:57;;;;;;;9.75;7.97;;;17.10;99.90;;;16.80;74.79;101574.56;5054939;28;20514;-75
2023/09/07 04:59:30;;;;;;;9.40;8.50;;;17.40;99.90;;;16.75;74.74;101565.31;5054805;28;20428;-75
2023/09/07 05:02:05;;;;;;;9.25;8.35;;;17.00;99.90;;;16.76;76.18;101567.84;5054896;28;20447;-75
2023/09/07 05:04:39;;;;;;;9.05;8.13;;;17.00;99.90;;;16.73;75.73;101577.16;5054989;28;20875;-67
2023/09/07 05:07:13;;;;;;;8.98;8.18;;;17.00;99.90;;;16.79;75.38;101572.03;5055332;28;20427;-71
2023/09/07 05:09:48;;;;;;;8.65;7.75;;;17.10;99.90;;;16.85;75.34;101572.16;5055397;28;20797;-71
2023/09/07 05:12:22;;;;;;;9.93;8.40;;;17.20;99.90;;;16.89;74.49;101578.03;5054738;28;20507;-71
2023/09/07 05:14:55;;;;;;;9.23;7.07;;;17.20;99.90;;;16.95;75.08;101566.50;5055483;28;20803;-71
2023/09/07 05:17:28;;;;;;;9.93;8.50;;;17.30;99.90;;;16.88;74.69;101570.97;5054981;28;20831;-71
2023/09/07 05:20:02;;;;;;;11.60;8.38;;;17.20;99.90;;;16.84;75.12;101572.34;5054229;28;20932;-71
2023/09/07 05:22:37;;;;;;;9.02;8.07;;;17.10;99.90;;;16.83;75.32;101565.25;5054826;28;20546;-71
2023/09/07 05:25:13;;;;;;;9.50;8.25;;;17.10;99.90;;;16.85;75.71;101566.72;5054455;28;20829;-72
2023/09/07 05:27:46;;;;;;;9.60;8.70;;;17.20;99.90;;;16.80;76.06;101573.72;5054408;28;20490;-72
2023/09/07 05:30:20;;;;;;;8.90;7.83;;;17.10;99.90;;;16.89;75.22;101572.63;5055222;28;20271;-72
2023/09/07 05:32:53;;;;;;;9.57;8.57;;;17.20;99.90;;;16.80;75.53;101569.16;5054314;28;20420;-72
2023/09/07 05:35:29;;;;;;;9.30;8.13;;;17.10;99.90;;;16.82;75.96;101566.25;5054304;28;20432;-72
2023/09/07 05:38:02;;;;;;;11.25;8.43;;;17.20;99.90;;;16.85;75.82;101568.63;5053956;28;20424;-72
2023/09/07 05:40:39;;;;;;;9.87;8.57;;;17.20;99.90;;;16.81;76.75;101564.59;5054131;28;20434;-72
2023/09/07 05:43:13;;;;;;;10.18;8.25;;;17.10;99.90;;;16.81;77.28;101570.84;5053775;28;20456;-72
2023/09/07 05:45:46;;;;;;;9.82;8.30;;;17.20;99.90;;;16.86;76.38;101573.84;5054061;28;20424;-72
2023/09/07 05:48:20;;;;;;;13.10;9.18;;;17.20;99.90;;;16.84;75.61;101569.63;5054023;28;20477;-72
2023/09/07 05:50:54;;;;;;;13.90;8.80;;;17.20;99.90;;;16.87;76.61;101571.97;5053895;28;20519;-72
2023/09/07 05:53:27;;;;;;;10.80;8.80;;;17.30;99.90;;;16.87;75.98;101577.38;5053634;28;20905;-72
2023/09/07 05:56:01;;;;;;;13.40;9.13;;;17.30;99.90;;;16.88;76.33;101579.09;5054222;28;20470;-72
2023/09/07 05:58:34;;;;;;;9.93;8.75;;;17.20;99.90;;;16.91;75.80;101582.25;5053996;28;20503;-72
2023/09/07 06:01:07;;;;;;;11.10;9.20;;;17.30;99.90;;;16.94;76.57;101586.47;5053726;28;20431;-72
2023/09/07 06:03:41;;;;;;;10.10;9.10;;;17.40;99.90;;;16.96;76.71;101581.69;5054219;28;20483;-72
2023/09/07 06:06:15;;;;;;;10.18;9.02;;;17.40;99.90;;;16.98;75.51;101576.97;5053318;28;20431;-72
2023/09/07 06:08:48;;;;;;;9.77;8.27;;;17.40;99.90;;;17.01;75.51;101582.00;5053178;28;20460;-72
2023/09/07 06:11:21;;;;;;;9.33;8.30;;;17.40;99.90;;;17.02;76.14;101583.69;5052936;28;20542;-72
2023/09/07 06:13:54;;;;;;;10.48;9.05;;;17.40;99.90;;;17.03;75.88;101579.94;5052484;28;20937;-72
2023/09/07 06:16:28;;;;;;;12.17;9.10;;;17.50;99.90;;;17.05;76.69;101580.63;5052586;28;20482;-71
2023/09/07 06:19:01;;;;;;;11.60;9.20;;;17.50;99.90;;;17.08;77.23;101582.97;5052721;28;20446;-71
2023/09/07 06:21:35;;;;;;;10.75;8.93;;;17.50;99.90;;;17.09;76.88;101590.88;5052467;28;20428;-72
2023/09/07 06:24:09;;;;;;;10.38;9.20;;;17.60;99.90;;;17.15;77.34;101589.34;5052606;28;20440;-72
2023/09/07 06:26:42;;;;;;;11.10;9.57;;;17.60;99.90;;;17.16;77.28;101597.25;5052577;28;20474;-71
2023/09/07 06:29:16;;;;;;;11.77;9.55;;;17.60;99.90;;;17.21;77.69;101602.13;5052560;28;20424;-72
2023/09/07 06:31:49;;;;;;;10.65;9.02;;;17.70;99.90;;;17.24;77.35;101599.91;5052643;28;20427;-72
2023/09/07 06:34:23;;;;;;;10.60;9.52;;;17.70;99.90;;;17.26;77.41;101601.59;5052526;28;20423;-72
2023/09/07 06:36:57;;;;;;;11.50;9.53;;;17.70;99.90;;;17.30;77.80;101608.28;5052353;28;20481;-72
2023/09/07 06:39:30;;;;;;;10.13;9.10;;;17.80;99.90;;;17.35;76.73;101604.03;5052231;28;20420;-72
2023/09/07 06:42:04;;;;;;;10.23;9.23;;;17.90;99.90;;;17.39;76.94;101610.78;5052741;28;20462;-72
2023/09/07 06:44:38;;;;;;;10.07;9.10;;;17.90;99.90;;;17.43;77.32;101606.66;5051843;28;20603;-72
2023/09/07 06:47:12;;;;;;;9.15;8.25;;;18.00;99.90;;;17.48;77.19;101612.34;5052212;28;20789;-72
2023/09/07 06:49:45;;;;;;;9.85;8.93;;;18.00;99.90;;;17.53;76.73;101609.09;5052148;28;20976;-72
2023/09/07 06:52:18;;;;;;;10.87;8.47;;;18.10;99.90;;;17.57;76.47;101616.69;5052527;28;20428;-72
2023/09/07 06:54:54;;;;;;;9.52;8.55;;;18.20;99.90;;;17.63;76.33;101604.31;5051941;28;20428;-72
2023/09/07 06:57:27;;;;;;;10.43;8.63;;;18.20;99.90;;;17.71;75.71;101612.31;5051844;28;20922;-72
2023/09/07 07:00:00;;;;;;;9.95;8.77;;;18.30;99.90;;;17.77;76.63;101610.75;5052423;28;20427;-72
2023/09/07 07:02:36;;;;;;;9.90;8.90;;;18.30;99.90;;;17.83;76.69;101610.00;5052196;28;20463;-72
2023/09/07 07:05:11;;;;;;;10.57;9.45;;;18.40;99.90;;;17.90;75.85;101605.53;5051659;28;20435;-72
2023/09/07 07:07:45;;;;;;;10.77;8.93;;;18.40;99.90;;;17.97;75.85;101612.72;5014563;28;1090435;-66
2023/09/07 07:10:18;;;;;;;9.60;8.70;;;18.50;99.90;;;18.10;76.03;101617.47;5052824;28;20506;-66
2023/09/07 07:12:53;;;;;;;11.32;8.88;;;18.60;99.90;;;18.14;75.15;101610.66;5052631;28;20430;-73
2023/09/07 07:15:26;;;;;;;9.63;8.32;;;18.70;99.90;;;18.21;75.29;101614.28;5052478;28;20429;-73
2023/09/07 07:17:59;;;;;;;11.45;8.45;;;18.80;99.90;;;18.31;75.12;101608.56;5052082;28;20781;-73
2023/09/07 07:20:33;;;;;;;10.05;8.77;;;18.80;99.90;;;18.36;74.63;101609.66;5052307;28;20427;-73
2023/09/07 07:23:07;;;;;;;9.52;8.48;;;19.20;99.90;;;18.42;73.95;101611.63;5052282;28;20526;-73
2023/09/07 07:25:41;;;;;;;9.35;8.23;;;19.00;99.90;;;18.51;73.54;101617.81;5052214;28;20894;-73
2023/09/07 07:28:14;;;;;;;9.82;7.97;;;19.10;99.90;;;18.61;73.01;101616.47;5052344;28;20424;-73
2023/09/07 07:30:48;;;;;;;9.63;7.95;;;19.20;99.90;;;18.72;73.00;101613.25;5052845;28;20519;-73
2023/09/07 07:33:21;;;;;;;26.80;9.73;;;19.30;99.90;;;18.83;73.39;101614.63;5052217;28;20412;-73
2023/09/07 07:35:55;;;;;;;10.60;7.57;;;19.50;99.90;;;18.86;73.75;101611.53;5052437;28;20435;-73
2023/09/07 07:38:28;;;;;;;8.87;7.33;;;19.50;99.90;;;18.99;72.46;101608.09;5053448;28;20188;-73
2023/09/07 07:41:03;;;;;;;9.55;7.55;;;19.60;99.90;;;19.04;72.93;101613.78;5052072;28;20455;-73
2023/09/07 07:43:37;;;;;;;8.85;7.35;;;19.70;99.90;;;19.16;72.21;101609.50;5052088;28;20493;-73
2023/09/07 07:46:11;;;;;;;10.55;7.15;;;19.80;99.90;;;19.22;72.69;101614.16;5051862;28;20866;-73
2023/09/07 07:48:45;;;;;;;9.05;7.20;;;19.90;99.90;;;19.32;71.08;101616.53;5051916;28;20424;-73
2023/09/07 07:51:18;;;;;;;8.60;7.10;;;19.90;99.90;;;19.40;70.98;101617.25;5052016;28;20428;-73
2023/09/07 07:53:51;;;;;;;10.77;7.50;;;20.10;99.90;;;19.58;70.34;101614.91;5052144;28;20519;-74
2023/09/07 07:56:26;;;;;;;8.30;6.47;;;20.20;99.90;;;19.67;69.91;101623.72;5052147;28;20424;-74
2023/09/07 07:58:59;;;;;;;8.75;6.85;;;20.30;99.90;;;19.71;69.87;101625.03;5056243;28;20493;-74
2023/09/07 08:01:33;;;;;;;8.30;6.85;;;20.40;99.90;;;19.83;69.85;101623.41;5055785;28;20902;-74
2023/09/07 08:04:07;;;;;;;7.60;6.80;;;20.50;99.90;;;20.02;68.61;101627.31;5055963;28;20443;-74
2023/09/07 08:06:40;;;;;;;9.50;6.70;;;20.60;99.50;;;19.94;68.92;101622.88;5055649;28;20980;-74
2023/09/07 08:09:14;;;;;;;10.65;6.95;;;20.60;99.50;;;20.10;68.04;101629.88;5055594;28;20423;-74
2023/09/07 08:11:47;;;;;;;8.27;6.40;;;20.80;99.10;;;20.18;67.85;101626.97;5057078;28;20191;-74
2023/09/07 08:14:22;;;;;;;8.43;6.47;;;20.80;98.90;;;20.30;67.87;101624.56;5056342;28;20510;-74
2023/09/07 08:16:57;;;;;;;8.77;7.05;;;21.00;98.90;;;20.31;67.67;101616.19;5056160;28;20431;-74
2023/09/07 08:19:30;;;;;;;10.85;6.60;;;21.00;98.80;;;20.43;67.01;101613.72;5055387;28;20886;-74
2023/09/07 08:22:06;;;;;;;7.65;6.38;;;21.10;98.50;;;20.64;67.02;101614.44;5055656;28;20789;-74
2023/09/07 08:24:40;;;;;;;7.53;6.72;;;21.30;98.60;;;20.79;66.96;101616.16;5055575;28;20483;-74
2023/09/07 08:27:18;;;;;;;7.63;6.60;;;21.50;98.40;;;20.92;66.30;101617.00;5055437;28;20434;-74
2023/09/07 08:29:52;;;;;;;8.65;6.63;;;21.60;98.00;;;20.94;66.15;101604.03;5055666;28;20451;-74
2023/09/07 08:32:25;;;;;;;7.47;6.73;;;21.70;97.80;;;21.16;65.49;101616.41;5056731;28;20280;-74
2023/09/07 08:35:00;;;;;;;9.18;6.45;;;21.80;97.60;;;21.17;66.23;101615.38;5055727;28;20420;-74
2023/09/07 08:37:34;;;;;;;7.43;6.47;;;21.80;97.90;;;21.31;66.30;101624.41;5056068;28;20451;-74
2023/09/07 08:40:11;;;;;;;10.65;6.55;;;22.00;98.10;;;21.35;65.74;101630.25;5056142;28;20453;-74
2023/09/07 08:42:44;;;;;;;7.50;6.70;;;22.00;97.50;;;21.44;64.54;101624.38;5055045;28;20786;-65
2023/09/07 08:45:22;;;;;;;7.10;6.40;;;22.10;96.90;;;21.45;65.53;101623.34;5056078;28;20448;-71
2023/09/07 08:47:59;;;;;;;8.23;6.60;;;22.10;97.20;;;21.57;65.38;101618.97;5055430;28;20481;-71
2023/09/07 08:50:34;;;;;;;10.00;6.43;;;22.30;97.40;;;21.61;65.24;101613.94;5055903;28;20766;-71
2023/09/07 08:53:08;;;;;;;10.75;6.50;;;22.30;97.20;;;21.75;64.33;101616.41;5055261;28;20516;-72
2023/09/07 08:55:41;;;;;;;7.40;6.57;;;22.50;96.70;;;21.83;64.54;101615.34;5055719;28;20490;-72
2023/09/07 08:58:15;;;;;;;9.10;6.70;;;22.70;99.90;;;21.95;63.52;101621.03;5054669;28;20430;-72
2023/09/07 09:00:50;;;;;;;8.98;6.53;;;22.60;96.60;;;22.03;63.59;101624.34;5054874;28;20427;-72
2023/09/07 09:03:24;;;;;;;7.88;5.97;;;22.70;96.50;;;22.13;63.52;101626.63;5055021;28;20428;-72
2023/09/07 09:05:59;;;;;;;9.68;6.50;;;22.90;96.10;;;22.25;63.50;101622.19;5055095;28;20871;-71
2023/09/07 09:08:41;;;;;;;6.25;5.65;;;23.00;95.90;;;22.44;61.74;101615.78;5054772;28;20459;-71
2023/09/07 09:11:16;;;;;;;8.13;5.93;;;23.10;95.20;;;22.54;61.17;101612.59;5054990;28;20428;-71
2023/09/07 09:13:52;;;;;;;7.63;5.97;;;23.20;94.70;;;22.69;60.38;101614.03;5054495;28;20575;-71
2023/09/07 09:16:26;;;;;;;6.43;4.90;;;23.30;94.40;;;22.74;60.72;101616.06;5055890;28;20221;-71
2023/09/07 09:19:00;;;;;;;9.23;5.97;;;23.40;94.40;;;22.86;61.02;101618.97;5054482;28;20918;-71
2023/09/07 09:21:34;;;;;;;7.37;5.60;;;23.50;94.30;;;22.93;60.75;101620.59;5055100;28;20439;-71
2023/09/07 09:24:12;;;;;;;7.97;5.88;;;23.60;94.30;;;23.00;60.28;101615.94;5055119;28;20447;-71
2023/09/07 09:26:45;;;;;;;6.95;5.50;;;23.60;94.10;;;23.11;60.09;101615.22;5055351;28;20394;-71
2023/09/07 09:29:22;;;;;;;9.37;5.73;;;23.80;94.00;;;23.23;57.92;101612.59;5055567;28;20186;-71
2023/09/07 09:31:56;;;;;;;8.60;5.70;;;23.90;92.90;;;23.45;57.37;101613.94;5054380;28;20424;-71
2023/09/07 09:34:35;;;;;;;9.00;5.80;;;24.10;92.70;;;23.55;55.82;101602.47;5054259;28;20511;-71
2023/09/07 09:37:16;;;;;;;7.85;5.65;;;24.20;91.50;;;23.70;56.75;101605.66;5054281;28;20507;-71
2023/09/07 09:39:54;;;;;;;9.48;6.07;;;24.40;91.70;;;23.90;55.81;101609.06;5054253;28;20478;-71
2023/09/07 09:42:28;;;;;;;6.95;5.55;;;24.50;91.40;;;24.09;55.28;101607.16;5054319;28;20424;-71
2023/09/07 09:45:05;;;;;;;9.98;5.47;;;24.70;91.00;;;24.16;55.06;101602.47;5054670;28;21027;-71
2023/09/07 09:47:42;;;;;;;9.38;5.90;;;24.70;90.70;;;24.14;56.55;101596.41;5054156;28;20424;-71
2023/09/07 09:50:17;;;;;;;9.18;6.13;;;24.80;91.40;;;24.27;54.14;101596.25;5054820;28;20443;-71
2023/09/07 09:52:52;;;;;;;9.65;5.70;;;24.80;90.20;;;24.42;54.79;101593.91;5054564;28;20463;-71
2023/09/07 09:55:28;;;;;;;11.32;6.05;;;25.10;90.50;;;24.55;54.26;101592.94;5053604;28;20941;-71
2023/09/07 09:58:01;;;;;;;7.05;5.20;;;25.10;95.10;;;24.68;53.80;101592.72;5053836;28;20423;-71
2023/09/07 10:00:37;;;;;;;6.88;5.95;;;25.30;90.20;;;24.83;53.20;101595.91;5054089;28;20514;-71
2023/09/07 10:03:19;;;;;;;10.35;5.88;;;25.40;89.60;;;24.99;53.05;101599.88;5054026;28;20490;-71
2023/09/07 10:05:53;;;;;;;6.18;5.18;;;25.60;89.00;;;25.02;53.84;101591.19;5054930;28;20683;-71
2023/09/07 10:08:30;;;;;;;7.90;5.50;;;25.60;89.70;;;25.26;51.21;101598.38;5053952;28;20434;-71
2023/09/07 10:11:10;;;;;;;8.57;6.03;;;25.80;86.80;;;25.39;51.31;101589.09;5053920;28;20434;-71
2023/09/07 10:13:44;;;;;;;7.97;5.65;;;25.90;87.00;;;25.51;50.29;101599.06;5054164;28;20465;-71
2023/09/07 10:16:18;;;;;;;7.63;5.40;;;26.00;85.90;;;25.54;50.70;101598.56;5053841;28;20505;-72
2023/09/07 10:18:52;;;;;;;7.35;5.68;;;26.10;85.70;;;25.64;51.24;101593.31;5053700;28;20424;-72
2023/09/07 10:21:27;;;;;;;7.30;5.90;;;26.20;86.70;;;25.86;49.67;101584.50;5052233;28;20897;-72
2023/09/07 10:24:00;;;;;;;8.63;5.63;;;26.40;84.80;;;25.86;49.49;101589.97;5053857;28;20507;-72
2023/09/07 10:26:33;;;;;;;6.97;5.32;;;26.30;84.00;;;25.85;52.39;101583.66;5054518;28;20297;-72
2023/09/07 10:29:08;;;;;;;9.20;5.57;;;26.40;87.80;;;26.10;49.56;101583.34;5053541;28;20423;-72
2023/09/07 10:31:51;;;;;;;9.15;5.65;;;26.60;84.60;;;26.10;49.43;101581.44;5054256;28;20506;-72
2023/09/07 10:34:39;;;;;;;7.20;5.60;;;26.60;83.90;;;26.24;48.40;101579.28;5053166;28;20536;-72
2023/09/07 10:37:13;;;;;;;6.03;5.40;;;26.70;82.10;;;26.30;51.10;101574.75;5053976;28;20420;-72
2023/09/07 10:39:48;;;;;;;7.47;5.80;;;26.80;85.80;;;26.45;48.41;101577.78;5053269;28;20940;-72